createdAt,value
2022-09-28T00:00:47.620Z,8.10
2022-09-28T00:03:14.152Z,8.07
2022-09-28T00:05:40.752Z,8.09
2022-09-28T00:08:07.246Z,8.08
2022-09-28T00:10:33.716Z,8.08
2022-09-28T00:13:01.405Z,8.08
2022-09-28T00:15:27.937Z,8.06
2022-09-28T00:17:54.403Z,8.00
2022-09-28T00:20:22.670Z,7.95
2022-09-28T00:22:49.226Z,7.94
2022-09-28T00:25:16.922Z,7.95
2022-09-28T00:27:43.594Z,8.00
2022-09-28T00:30:10.409Z,8.06
2022-09-28T00:32:36.838Z,8.08
2022-09-28T00:35:03.404Z,8.06
2022-09-28T00:37:29.957Z,8.01
2022-09-28T00:39:56.446Z,7.96
2022-09-28T00:42:25.049Z,7.88
2022-09-28T00:44:58.680Z,7.81
2022-09-28T00:47:46.642Z,7.73
2022-09-28T00:50:33.002Z,7.72
2022-09-28T00:53:18.287Z,7.76
2022-09-28T00:55:55.279Z,7.82
2022-09-28T00:58:27.532Z,7.89
2022-09-28T01:00:56.723Z,7.91
2022-09-28T01:03:23.684Z,7.92
2022-09-28T01:05:53.422Z,7.88
2022-09-28T01:08:21.925Z,7.77
2022-09-28T01:10:48.984Z,7.64
2022-09-28T01:13:17.323Z,7.53
2022-09-28T01:15:58.413Z,7.46
2022-09-28T01:18:56.989Z,7.42
2022-09-28T01:21:24.717Z,7.42
2022-09-28T01:24:12.371Z,7.44
2022-09-28T01:26:46.037Z,7.51
2022-09-28T01:29:31.041Z,7.58
2022-09-28T01:32:09.647Z,7.63
2022-09-28T01:34:45.827Z,7.69
2022-09-28T01:37:15.148Z,7.71
2022-09-28T01:39:45.949Z,7.75
2022-09-28T01:42:20.346Z,7.76
2022-09-28T01:44:50.594Z,7.79
2022-09-28T01:47:22.863Z,7.79
2022-09-28T01:49:58.850Z,7.78
2022-09-28T01:52:31.705Z,7.80
2022-09-28T01:55:13.289Z,7.73
2022-09-28T01:57:45.665Z,7.66
2022-09-28T02:00:15.040Z,7.63
2022-09-28T02:03:09.584Z,7.64
2022-09-28T02:05:39.380Z,7.65
2022-09-28T02:08:15.396Z,7.66
2022-09-28T02:11:08.437Z,7.67
2022-09-28T02:13:42.711Z,7.77
2022-09-28T02:16:16.367Z,7.82
2022-09-28T02:18:44.907Z,7.84
2022-09-28T02:21:17.637Z,7.86
2022-09-28T02:23:56.284Z,7.89
2022-09-28T02:26:28.058Z,7.90
2022-09-28T02:28:54.542Z,7.84
2022-09-28T02:31:21.164Z,7.81
2022-09-28T02:33:51.120Z,7.82
2022-09-28T02:36:17.673Z,7.77
2022-09-28T02:38:44.415Z,7.74
2022-09-28T02:41:25.912Z,7.76
2022-09-28T02:44:14.929Z,7.72
2022-09-28T02:47:00.618Z,7.71
2022-09-28T02:49:59.079Z,7.67
2022-09-28T02:52:34.391Z,7.61
2022-09-28T02:55:14.426Z,7.54
2022-09-28T02:58:15.686Z,7.48
2022-09-28T03:00:53.086Z,7.36
2022-09-28T03:03:33.258Z,7.29
2022-09-28T03:06:17.873Z,7.15
2022-09-28T03:09:00.619Z,6.99
2022-09-28T03:11:33.637Z,6.81
2022-09-28T03:14:01.634Z,6.78
2022-09-28T03:16:29.120Z,6.75
2022-09-28T03:18:55.887Z,6.50
2022-09-28T03:21:22.387Z,6.33
2022-09-28T03:23:48.804Z,6.19
2022-09-28T03:26:16.846Z,6.07
2022-09-28T03:28:43.449Z,5.98
2022-09-28T03:31:09.948Z,5.88
2022-09-28T03:33:36.475Z,5.89
2022-09-28T03:36:03.009Z,5.89
2022-09-28T03:38:29.486Z,5.89
2022-09-28T03:40:57.740Z,5.92
2022-09-28T03:43:24.932Z,5.84
2022-09-28T03:46:01.971Z,5.76
2022-09-28T03:48:33.038Z,5.68
2022-09-28T03:51:05.838Z,5.55
2022-09-28T03:53:33.433Z,5.43
2022-09-28T03:56:05.396Z,5.36
2022-09-28T03:58:31.979Z,5.31
2022-09-28T04:01:06.770Z,5.30
2022-09-28T04:03:33.771Z,5.27
2022-09-28T04:06:00.606Z,5.31
2022-09-28T04:08:27.351Z,5.32
2022-09-28T04:11:01.028Z,5.34
2022-09-28T04:13:28.834Z,5.27
2022-09-28T04:15:57.535Z,5.26
2022-09-28T04:18:24.850Z,5.32
2022-09-28T04:21:08.966Z,5.40
2022-09-28T04:23:36.816Z,5.42
2022-09-28T04:26:08.461Z,5.39
2022-09-28T04:28:53.265Z,5.29
2022-09-28T04:31:23.012Z,5.23
2022-09-28T04:33:49.603Z,5.25
2022-09-28T04:36:16.121Z,5.35
2022-09-28T04:38:52.756Z,5.53
2022-09-28T04:41:20.070Z,5.92
2022-09-28T04:43:47.400Z,6.17
2022-09-28T04:46:14.581Z,6.42
2022-09-28T04:48:41.073Z,6.61
2022-09-28T04:51:07.589Z,6.68
2022-09-28T04:53:35.104Z,6.70
2022-09-28T04:56:03.153Z,6.67
2022-09-28T04:58:30.650Z,6.59
2022-09-28T05:01:00.434Z,6.50
2022-09-28T05:03:28.019Z,6.38
2022-09-28T05:05:54.856Z,6.25
2022-09-28T05:08:21.371Z,6.11
2022-09-28T05:10:47.915Z,6.06
2022-09-28T05:13:15.558Z,6.07
2022-09-28T05:15:42.610Z,6.07
2022-09-28T05:18:09.327Z,6.09
2022-09-28T05:20:41.083Z,6.12
2022-09-28T05:23:10.701Z,6.14
2022-09-28T05:25:37.183Z,6.25
2022-09-28T05:28:03.803Z,6.31
2022-09-28T05:30:30.344Z,6.37
2022-09-28T05:32:56.927Z,6.42
2022-09-28T05:35:23.388Z,6.50
2022-09-28T05:37:49.899Z,6.55
2022-09-28T05:40:16.934Z,6.59
2022-09-28T05:42:43.474Z,6.60
2022-09-28T05:45:10.555Z,6.57
2022-09-28T05:47:38.191Z,6.63
2022-09-28T05:50:06.205Z,6.62
2022-09-28T05:52:32.634Z,6.64
2022-09-28T05:54:59.102Z,6.63
2022-09-28T05:57:25.636Z,6.68
2022-09-28T05:59:52.165Z,6.74
2022-09-28T06:02:18.706Z,6.86
2022-09-28T06:04:45.222Z,6.97
2022-09-28T06:07:12.605Z,6.98
2022-09-28T06:09:39.146Z,6.98
2022-09-28T06:12:05.648Z,6.97
2022-09-28T06:14:32.181Z,6.92
2022-09-28T06:16:58.759Z,6.86
2022-09-28T06:19:25.235Z,6.84
2022-09-28T06:21:51.688Z,6.85
2022-09-28T06:24:18.231Z,6.87
2022-09-28T06:26:44.890Z,6.96
2022-09-28T06:29:18.627Z,7.05
2022-09-28T06:31:47.231Z,7.18
2022-09-28T06:34:14.384Z,7.30
2022-09-28T06:36:41.002Z,7.45
2022-09-28T06:39:07.742Z,7.54
2022-09-28T06:41:34.246Z,7.58
2022-09-28T06:44:02.022Z,7.52
2022-09-28T06:46:28.569Z,7.44
2022-09-28T06:48:55.084Z,7.41
2022-09-28T06:51:21.954Z,7.46
2022-09-28T06:53:48.487Z,7.61
2022-09-28T06:56:14.966Z,7.85
2022-09-28T06:58:42.606Z,8.10
2022-09-28T07:01:09.302Z,8.28
2022-09-28T07:03:35.782Z,8.37
2022-09-28T07:06:02.746Z,8.44
2022-09-28T07:08:29.269Z,8.47
2022-09-28T07:10:58.947Z,8.47
2022-09-28T07:16:14.902Z,8.57
2022-09-28T07:18:42.294Z,8.76
2022-09-28T07:21:12.471Z,8.98
2022-09-28T07:23:52.794Z,9.20
2022-09-28T07:26:23.681Z,9.37
2022-09-28T07:28:51.055Z,9.48
2022-09-28T07:31:18.035Z,9.59
2022-09-28T07:33:45.806Z,9.61
2022-09-28T07:36:12.482Z,9.71
2022-09-28T07:38:39.162Z,9.82
2022-09-28T07:41:11.919Z,9.95
2022-09-28T07:43:40.257Z,9.97
2022-09-28T07:46:14.015Z,10.10
2022-09-28T07:48:42.163Z,10.19
2022-09-28T07:51:09.847Z,10.16
2022-09-28T07:53:38.313Z,10.16
2022-09-28T07:56:09.386Z,10.19
2022-09-28T07:58:37.757Z,10.26
2022-09-28T08:01:07.016Z,10.39
2022-09-28T08:03:35.310Z,10.45
2022-09-28T08:06:04.385Z,10.55
2022-09-28T08:08:33.063Z,10.66
2022-09-28T08:10:59.774Z,10.81
2022-09-28T08:13:27.225Z,10.91
2022-09-28T08:15:54.673Z,10.91
2022-09-28T08:18:23.423Z,10.97
2022-09-28T08:21:10.978Z,10.91
2022-09-28T08:23:38.443Z,10.94
2022-09-28T08:26:06.683Z,10.91
2022-09-28T08:28:34.951Z,11.00
2022-09-28T08:31:01.999Z,10.97
2022-09-28T08:33:30.477Z,10.94
2022-09-28T08:36:02.046Z,10.83
2022-09-28T08:38:31.060Z,10.75
2022-09-28T08:41:16.674Z,10.65
2022-09-28T08:44:10.823Z,10.58
2022-09-28T08:46:47.826Z,10.57
2022-09-28T08:49:30.262Z,10.58
2022-09-28T08:52:11.704Z,10.59
2022-09-28T08:54:59.018Z,10.55
2022-09-28T08:57:45.246Z,10.50
2022-09-28T09:00:22.157Z,10.41
2022-09-28T09:02:49.273Z,10.46
2022-09-28T09:05:23.816Z,10.47
2022-09-28T09:08:12.415Z,10.44
2022-09-28T09:10:57.818Z,10.46
2022-09-28T09:13:43.208Z,10.45
2022-09-28T09:16:40.491Z,10.38
2022-09-28T09:19:30.275Z,10.32
2022-09-28T09:22:11.011Z,10.39
2022-09-28T09:24:49.603Z,10.51
2022-09-28T09:27:53.456Z,10.60
2022-09-28T09:30:31.256Z,10.73
2022-09-28T09:37:09.311Z,11.31
2022-09-28T09:40:35.547Z,11.54
2022-09-28T09:43:29.450Z,11.52
2022-09-28T09:46:04.085Z,11.54
2022-09-28T09:48:54.482Z,11.45
2022-09-28T09:54:36.017Z,11.17
2022-09-28T09:57:11.315Z,10.97
2022-09-28T09:59:41.764Z,10.84
2022-09-28T10:02:36.204Z,10.75
2022-09-28T10:05:08.977Z,10.67
2022-09-28T10:07:49.461Z,10.55
2022-09-28T10:10:33.123Z,10.49
2022-09-28T10:12:59.632Z,10.47
2022-09-28T10:15:30.270Z,10.43
2022-09-28T10:18:11.333Z,10.44
2022-09-28T10:20:41.291Z,10.42
2022-09-28T10:23:23.019Z,10.44
2022-09-28T10:25:52.739Z,10.48
2022-09-28T10:28:40.893Z,10.41
2022-09-28T10:31:35.672Z,10.42
2022-09-28T10:34:12.533Z,10.37
2022-09-28T10:36:56.095Z,10.40
2022-09-28T10:39:44.114Z,10.55
2022-09-28T10:42:18.259Z,10.74
2022-09-28T10:44:59.223Z,10.80
2022-09-28T10:47:29.285Z,10.96
2022-09-28T10:49:56.787Z,11.07
2022-09-28T10:52:41.977Z,11.19
2022-09-28T10:55:40.692Z,11.35
2022-09-28T10:58:37.814Z,11.50
2022-09-28T11:01:10.397Z,11.53
2022-09-28T11:03:54.941Z,11.62
2022-09-28T11:06:38.220Z,11.42
2022-09-28T11:09:31.207Z,11.37
2022-09-28T11:12:00.092Z,11.38
2022-09-28T11:14:42.743Z,11.39
2022-09-28T11:17:29.654Z,11.34
2022-09-28T11:19:59.022Z,11.26
2022-09-28T11:22:31.193Z,11.08
2022-09-28T11:25:32.789Z,10.89
2022-09-28T11:28:04.261Z,10.83
2022-09-28T11:30:49.104Z,10.68
2022-09-28T11:33:20.591Z,10.59
2022-09-28T11:36:19.453Z,10.47
2022-09-28T11:38:48.857Z,10.40
2022-09-28T11:41:52.976Z,10.38
2022-09-28T11:44:34.830Z,10.36
2022-09-28T11:47:29.667Z,10.39
2022-09-28T11:50:06.522Z,10.42
2022-09-28T11:52:46.259Z,10.44
2022-09-28T11:55:21.634Z,10.52
2022-09-28T11:58:14.375Z,10.53
2022-09-28T12:00:50.744Z,10.47
2022-09-28T12:03:36.583Z,10.50
2022-09-28T12:06:08.859Z,10.56
2022-09-28T12:08:40.020Z,10.70
2022-09-28T12:11:37.126Z,10.78
2022-09-28T12:14:10.393Z,11.00
2022-09-28T12:17:05.651Z,11.37
2022-09-28T12:19:42.469Z,11.98
2022-09-28T12:22:34.517Z,12.07
2022-09-28T12:25:07.546Z,12.60
2022-09-28T12:28:06.357Z,12.61
2022-09-28T12:30:57.170Z,12.76
2022-09-28T12:33:23.815Z,12.94
2022-09-28T12:36:31.322Z,12.97
2022-09-28T12:39:40.905Z,13.39
2022-09-28T12:42:36.534Z,14.67
2022-09-28T12:45:19.250Z,15.04
2022-09-28T12:48:27.091Z,14.53
2022-09-28T12:51:20.779Z,14.04
2022-09-28T12:54:08.312Z,13.41
2022-09-28T12:57:07.128Z,13.27
2022-09-28T12:59:48.146Z,14.02
2022-09-28T13:02:39.301Z,14.56
2022-09-28T13:05:24.377Z,14.80
2022-09-28T13:08:27.603Z,15.58
2022-09-28T13:11:20.886Z,15.84
2022-09-28T13:14:06.993Z,16.29
2022-09-28T13:17:00.424Z,16.55
2022-09-28T13:19:48.654Z,16.53
2022-09-28T13:22:46.323Z,16.49
2022-09-28T13:25:22.276Z,15.92
2022-09-28T13:27:55.490Z,15.04
2022-09-28T13:30:22.662Z,14.47
2022-09-28T13:32:52.790Z,13.98
2022-09-28T13:35:22.343Z,13.59
2022-09-28T13:38:17.951Z,13.75
2022-09-28T13:41:29.129Z,13.34
2022-09-28T13:44:16.762Z,13.02
2022-09-28T13:46:58.897Z,12.86
2022-09-28T13:49:46.795Z,12.85
2022-09-28T13:52:39.180Z,13.20
2022-09-28T13:55:47.259Z,13.02
2022-09-28T13:58:39.035Z,12.70
2022-09-28T14:01:17.364Z,12.39
2022-09-28T14:03:55.869Z,12.42
2022-09-28T14:06:31.506Z,12.48
2022-09-28T14:09:12.931Z,12.78
2022-09-28T14:12:00.611Z,12.97
2022-09-28T14:14:50.702Z,12.91
2022-09-28T14:17:23.509Z,13.09
2022-09-28T14:20:07.267Z,13.00
2022-09-28T14:22:36.449Z,12.97
2022-09-28T14:25:26.541Z,13.16
2022-09-28T14:28:30.015Z,13.10
2022-09-28T14:30:58.875Z,12.93
2022-09-28T14:33:33.526Z,12.74
2022-09-28T14:36:04.666Z,12.40
2022-09-28T14:38:49.835Z,12.29
2022-09-28T14:41:17.637Z,12.47
2022-09-28T14:43:44.049Z,12.56
2022-09-28T14:46:19.859Z,12.44
2022-09-28T14:48:57.163Z,12.21
2022-09-28T14:51:26.780Z,12.19
2022-09-28T14:54:09.312Z,12.15
2022-09-28T14:56:57.187Z,12.16
2022-09-28T14:59:25.378Z,12.13
2022-09-28T15:02:10.900Z,12.24
2022-09-28T15:04:43.499Z,12.13
2022-09-28T15:07:29.713Z,12.39
2022-09-28T15:09:58.441Z,12.36
2022-09-28T15:12:30.391Z,12.12
2022-09-28T15:15:02.627Z,11.78
2022-09-28T15:17:38.482Z,11.78
2022-09-28T15:20:23.270Z,11.77
2022-09-28T15:22:52.988Z,12.08
2022-09-28T15:25:22.124Z,12.52
2022-09-28T15:28:04.638Z,12.76
2022-09-28T15:30:32.993Z,12.70
2022-09-28T15:33:24.907Z,12.61
2022-09-28T15:36:05.960Z,12.60
2022-09-28T15:38:34.026Z,12.62
2022-09-28T15:41:04.699Z,12.83
2022-09-28T15:43:33.197Z,12.85
2022-09-28T15:46:05.095Z,12.91
2022-09-28T15:48:52.752Z,13.00
2022-09-28T15:51:23.793Z,12.97
2022-09-28T15:54:17.579Z,12.94
2022-09-28T15:56:59.672Z,12.80
2022-09-28T15:59:34.741Z,12.84
2022-09-28T16:02:08.183Z,12.76
2022-09-28T16:04:55.937Z,12.71
2022-09-28T16:07:40.181Z,12.70
2022-09-28T16:10:12.435Z,12.64
2022-09-28T16:12:48.618Z,12.59
2022-09-28T16:15:25.408Z,12.49
2022-09-28T16:18:02.997Z,12.58
2022-09-28T16:20:37.883Z,12.61
2022-09-28T16:23:21.274Z,12.70
2022-09-28T16:26:13.072Z,12.59
2022-09-28T16:28:39.477Z,12.49
2022-09-28T16:31:10.668Z,12.28
2022-09-28T16:33:56.786Z,12.11
2022-09-28T16:36:27.559Z,11.96
2022-09-28T16:38:54.992Z,11.82
2022-09-28T16:41:25.963Z,11.66
2022-09-28T16:43:59.224Z,11.60
2022-09-28T16:46:32.443Z,11.50
2022-09-28T16:49:01.587Z,11.44
2022-09-28T16:51:28.608Z,11.39
2022-09-28T16:54:18.286Z,11.33
2022-09-28T16:56:44.786Z,11.24
2022-09-28T16:59:13.786Z,11.14
2022-09-28T17:01:43.790Z,11.01
2022-09-28T17:04:11.213Z,10.93
2022-09-28T17:06:38.782Z,10.76
2022-09-28T17:09:07.230Z,10.66
2022-09-28T17:11:45.080Z,10.49
2022-09-28T17:14:11.932Z,10.32
2022-09-28T17:19:42.973Z,9.92
2022-09-28T17:22:09.989Z,9.72
2022-09-28T17:24:40.883Z,9.73
2022-09-28T17:27:15.477Z,9.64
2022-09-28T17:29:45.464Z,9.52
2022-09-28T17:32:39.105Z,9.39
2022-09-28T17:35:23.684Z,9.45
2022-09-28T17:37:50.938Z,9.42
2022-09-28T17:40:28.853Z,9.31
2022-09-28T17:42:56.411Z,9.23
2022-09-28T17:45:28.435Z,9.09
2022-09-28T17:47:55.818Z,8.99
2022-09-28T17:50:28.188Z,8.89
2022-09-28T17:52:54.846Z,8.84
2022-09-28T17:55:29.557Z,8.80
2022-09-28T17:57:56.470Z,8.65
2022-09-28T18:00:27.165Z,8.53
2022-09-28T18:02:57.600Z,8.48
2022-09-28T18:05:25.934Z,8.49
2022-09-28T18:07:52.583Z,8.45
2022-09-28T18:10:25.074Z,8.46
2022-09-28T18:12:51.738Z,8.50
2022-09-28T18:15:19.385Z,8.51
2022-09-28T18:17:45.901Z,8.49
2022-09-28T18:20:13.551Z,8.46
2022-09-28T18:22:40.324Z,8.45
2022-09-28T18:25:07.391Z,8.43
2022-09-28T18:27:36.408Z,8.40
2022-09-28T18:30:04.086Z,8.44
2022-09-28T18:32:30.918Z,8.41
2022-09-28T18:34:57.354Z,8.47
2022-09-28T18:37:23.789Z,8.50
2022-09-28T18:39:50.390Z,8.44
2022-09-28T18:42:17.105Z,8.45
2022-09-28T18:44:43.581Z,8.46
2022-09-28T18:47:30.039Z,8.43
2022-09-28T18:50:19.675Z,8.44
2022-09-28T18:52:47.373Z,8.39
2022-09-28T18:55:22.859Z,8.35
2022-09-28T18:57:49.824Z,8.43
2022-09-28T19:00:16.392Z,8.44
2022-09-28T19:02:43.150Z,8.47
2022-09-28T19:05:09.921Z,8.48
2022-09-28T19:07:36.447Z,8.50
2022-09-28T19:10:03.270Z,8.52
2022-09-28T19:12:29.825Z,8.51
2022-09-28T19:17:40.285Z,8.49
2022-09-28T19:20:07.719Z,8.51
2022-09-28T19:22:34.394Z,8.47
2022-09-28T19:25:15.593Z,8.49
2022-09-28T19:27:42.099Z,8.44
2022-09-28T19:30:09.003Z,8.54
2022-09-28T19:32:53.501Z,8.52
2022-09-28T19:35:19.965Z,8.53
2022-09-28T19:38:01.814Z,8.51
2022-09-28T19:40:28.508Z,8.53
2022-09-28T19:42:54.992Z,8.60
2022-09-28T19:45:21.467Z,8.62
2022-09-28T19:47:49.140Z,8.62
2022-09-28T19:50:15.732Z,8.64
2022-09-28T19:52:42.248Z,8.65
2022-09-28T19:55:08.874Z,8.63
2022-09-28T19:57:35.381Z,8.60
2022-09-28T20:00:03.564Z,8.52
2022-09-28T20:02:30.482Z,8.42
2022-09-28T20:04:57.186Z,8.27
2022-09-28T20:07:23.782Z,8.16
2022-09-28T20:09:50.267Z,8.02
2022-09-28T20:12:16.701Z,7.91
2022-09-28T20:14:43.250Z,7.82
2022-09-28T20:17:09.826Z,7.75
2022-09-28T20:19:36.303Z,7.66
2022-09-28T20:22:03.247Z,7.60
2022-09-28T20:24:31.285Z,7.56
2022-09-28T20:26:58.540Z,7.53
2022-09-28T20:29:30.920Z,7.48
2022-09-28T20:32:01.722Z,7.39
2022-09-28T20:34:40.654Z,7.37
2022-09-28T20:37:07.203Z,7.44
2022-09-28T20:40:00.503Z,7.46
2022-09-28T20:42:31.910Z,7.44
2022-09-28T20:44:58.643Z,7.57
2022-09-28T20:47:26.291Z,7.67
2022-09-28T20:49:52.838Z,7.69
2022-09-28T20:52:19.339Z,7.66
2022-09-28T20:54:46.239Z,7.63
2022-09-28T20:57:18.460Z,7.59
2022-09-28T20:59:45.461Z,7.56
2022-09-28T21:02:13.281Z,7.56
2022-09-28T21:04:41.306Z,7.50
2022-09-28T21:07:10.959Z,7.46
2022-09-28T21:09:37.769Z,7.37
2022-09-28T21:12:05.022Z,7.41
2022-09-28T21:14:31.576Z,7.42
2022-09-28T21:16:58.059Z,7.36
2022-09-28T21:19:24.546Z,7.31
2022-09-28T21:21:51.697Z,7.23
2022-09-28T21:24:18.326Z,7.19
2022-09-28T21:26:44.824Z,7.18
2022-09-28T21:29:13.816Z,7.14
2022-09-28T21:31:48.074Z,7.14
2022-09-28T21:34:20.109Z,7.09
2022-09-28T21:36:53.140Z,7.11
2022-09-28T21:39:20.234Z,7.09
2022-09-28T21:41:46.819Z,7.03
2022-09-28T21:44:14.554Z,6.97
2022-09-28T21:46:41.300Z,6.90
2022-09-28T21:49:08.273Z,6.86
2022-09-28T21:51:35.771Z,6.86
2022-09-28T21:54:02.266Z,6.80
2022-09-28T21:56:28.750Z,6.74
2022-09-28T21:58:55.315Z,6.72
2022-09-28T22:01:25.514Z,6.80
2022-09-28T22:03:56.343Z,6.87
2022-09-28T22:06:28.100Z,6.91
2022-09-28T22:08:55.537Z,6.86
2022-09-28T22:11:24.881Z,6.87
2022-09-28T22:13:53.956Z,6.86
2022-09-28T22:16:23.473Z,6.82
2022-09-28T22:18:50.718Z,6.74
2022-09-28T22:21:22.478Z,6.76
2022-09-28T22:23:49.667Z,6.72
2022-09-28T22:26:20.684Z,6.65
2022-09-28T22:28:49.513Z,6.60
2022-09-28T22:31:17.943Z,6.59
2022-09-28T22:33:44.697Z,6.54
2022-09-28T22:36:11.919Z,6.49
2022-09-28T22:38:39.386Z,6.45
2022-09-28T22:41:05.962Z,6.45
2022-09-28T22:43:32.754Z,6.43
2022-09-28T22:46:03.424Z,6.43
2022-09-28T22:48:30.102Z,6.42
2022-09-28T22:50:56.639Z,6.39
2022-09-28T22:53:23.234Z,6.47
2022-09-28T22:55:50.091Z,6.47
2022-09-28T22:58:16.582Z,6.45
2022-09-28T23:00:43.280Z,6.39
2022-09-28T23:03:10.134Z,6.37
2022-09-28T23:05:36.872Z,6.33
2022-09-28T23:08:03.716Z,6.29
2022-09-28T23:10:30.381Z,6.28
2022-09-28T23:12:56.918Z,6.36
2022-09-28T23:15:23.394Z,6.36
2022-09-28T23:17:53.080Z,6.38
2022-09-28T23:20:20.470Z,6.37
2022-09-28T23:22:48.004Z,6.35
2022-09-28T23:25:16.265Z,6.29
2022-09-28T23:27:50.155Z,6.20
2022-09-28T23:30:18.607Z,6.12
2022-09-28T23:32:45.715Z,6.00
2022-09-28T23:35:13.493Z,5.94
2022-09-28T23:37:40.033Z,5.96
2022-09-28T23:40:07.486Z,6.01
2022-09-28T23:42:34.934Z,6.04
2022-09-28T23:45:01.816Z,6.08
2022-09-28T23:47:28.353Z,6.13
2022-09-28T23:49:54.766Z,6.12
2022-09-28T23:52:21.258Z,6.19
2022-09-28T23:54:47.702Z,6.23
2022-09-28T23:57:14.218Z,6.24
2022-09-28T23:59:40.662Z,6.23
